createdAt,value
2023-04-07T00:00:45.663Z,6.80
2023-04-07T00:02:55.166Z,8.00
2023-04-07T00:05:03.470Z,7.70
2023-04-07T00:07:07.418Z,7.70
2023-04-07T00:09:11.542Z,6.50
2023-04-07T00:11:16.762Z,5.80
2023-04-07T00:13:20.787Z,6.30
2023-04-07T00:15:27.382Z,6.50
2023-04-07T00:17:33.650Z,6.30
2023-04-07T00:19:39.875Z,6.30
2023-04-07T00:23:49.388Z,5.80
2023-04-07T00:25:54.651Z,6.30
2023-04-07T00:27:57.855Z,6.20
2023-04-07T00:30:00.799Z,7.00
2023-04-07T00:32:03.807Z,6.40
2023-04-07T00:34:08.811Z,8.20
2023-04-07T00:36:11.647Z,7.10
2023-04-07T00:38:14.259Z,8.60
2023-04-07T00:40:17.634Z,7.20
2023-04-07T00:42:20.616Z,6.90
2023-04-07T00:44:23.238Z,6.60
2023-04-07T00:46:28.641Z,6.70
2023-04-07T00:48:33.048Z,7.20
2023-04-07T00:50:35.694Z,7.50
2023-04-07T00:52:38.577Z,7.60
2023-04-07T00:54:43.365Z,6.80
2023-04-07T00:56:46.530Z,7.10
2023-04-07T00:58:49.230Z,7.40
2023-04-07T01:01:05.117Z,8.10
2023-04-07T01:03:28.827Z,7.40
2023-04-07T01:05:46.799Z,8.10
2023-04-07T01:08:27.850Z,7.80
2023-04-07T01:10:42.802Z,7.60
2023-04-07T01:13:06.070Z,8.00
2023-04-07T01:15:37.836Z,6.70
2023-04-07T01:17:59.900Z,7.40
2023-04-07T01:20:10.254Z,7.20
2023-04-07T01:22:47.748Z,9.10
2023-04-07T01:25:18.952Z,8.70
2023-04-07T01:30:00.340Z,6.40
2023-04-07T01:32:15.016Z,6.30
2023-04-07T01:34:21.561Z,6.30
2023-04-07T01:36:28.241Z,6.70
2023-04-07T01:38:34.066Z,5.50
2023-04-07T01:40:39.768Z,5.50
2023-04-07T01:42:53.072Z,5.70
2023-04-07T01:44:59.531Z,6.40
2023-04-07T01:47:06.063Z,6.10
2023-04-07T01:49:13.523Z,6.30
2023-04-07T01:51:19.057Z,6.50
2023-04-07T01:53:26.201Z,5.40
2023-04-07T01:55:29.904Z,5.60
2023-04-07T01:57:42.291Z,5.70
2023-04-07T01:59:52.230Z,6.00
2023-04-07T02:01:57.782Z,6.80
2023-04-07T02:04:09.222Z,5.70
2023-04-07T02:06:22.427Z,6.00
2023-04-07T02:08:30.573Z,6.70
2023-04-07T02:10:39.918Z,7.20
2023-04-07T02:12:47.306Z,6.40
2023-04-07T02:14:55.714Z,5.60
2023-04-07T02:17:03.802Z,6.10
2023-04-07T02:19:26.737Z,5.70
2023-04-07T02:21:35.211Z,6.40
2023-04-07T02:23:49.926Z,6.10
2023-04-07T02:25:58.305Z,5.40
2023-04-07T02:28:03.653Z,6.10
2023-04-07T02:30:13.940Z,6.20
2023-04-07T02:32:22.228Z,7.00
2023-04-07T02:34:28.088Z,6.50
2023-04-07T02:36:32.729Z,7.70
2023-04-07T02:38:43.872Z,6.40
2023-04-07T02:40:54.416Z,5.70
2023-04-07T02:43:02.520Z,5.70
2023-04-07T02:45:06.889Z,6.20
2023-04-07T02:47:18.873Z,6.00
2023-04-07T02:49:23.052Z,5.80
2023-04-07T02:51:27.243Z,6.10
2023-04-07T02:53:35.095Z,6.90
2023-04-07T02:55:39.910Z,6.00
2023-04-07T02:57:42.796Z,5.50
2023-04-07T02:59:52.227Z,5.60
2023-04-07T03:01:54.981Z,5.40
2023-04-07T03:03:58.257Z,6.30
2023-04-07T03:06:02.363Z,5.90
2023-04-07T03:08:08.049Z,5.50
2023-04-07T03:10:12.539Z,5.40
2023-04-07T03:12:18.881Z,5.50
2023-04-07T03:14:21.727Z,5.60
2023-04-07T03:16:26.511Z,5.50
2023-04-07T03:18:43.938Z,6.30
2023-04-07T03:20:50.220Z,5.50
2023-04-07T03:22:57.890Z,5.70
2023-04-07T03:25:06.130Z,5.30
2023-04-07T03:27:10.314Z,6.20
2023-04-07T03:29:33.810Z,5.80
2023-04-07T03:31:48.221Z,7.60
2023-04-07T03:33:52.585Z,6.20
2023-04-07T03:35:56.653Z,6.90
2023-04-07T03:38:07.574Z,5.90
2023-04-07T03:40:12.160Z,6.20
2023-04-07T03:42:18.269Z,5.90
2023-04-07T03:44:24.305Z,6.10
2023-04-07T03:46:27.515Z,6.40
2023-04-07T03:48:30.613Z,5.80
2023-04-07T03:50:42.382Z,5.50
2023-04-07T03:52:51.264Z,5.70
2023-04-07T03:55:01.755Z,6.30
2023-04-07T03:57:10.875Z,5.20
2023-04-07T03:59:23.112Z,5.70
2023-04-07T04:01:45.092Z,6.90
2023-04-07T04:03:54.408Z,5.80
2023-04-07T04:06:10.995Z,6.20
2023-04-07T04:08:32.464Z,6.50
2023-04-07T04:10:36.675Z,7.70
2023-04-07T04:12:41.457Z,6.70
2023-04-07T04:14:49.836Z,7.60
2023-04-07T04:16:58.306Z,6.00
2023-04-07T04:19:08.934Z,5.70
2023-04-07T04:21:14.322Z,6.00
2023-04-07T04:23:33.678Z,5.40
2023-04-07T04:25:43.046Z,7.30
2023-04-07T04:27:47.543Z,6.00
2023-04-07T04:29:54.106Z,6.10
2023-04-07T04:32:07.547Z,5.90
2023-04-07T04:34:11.768Z,5.70
2023-04-07T04:36:25.200Z,5.90
2023-04-07T04:38:36.142Z,6.60
2023-04-07T04:40:49.877Z,5.80
2023-04-07T04:43:04.069Z,5.40
2023-04-07T04:45:26.467Z,6.20
2023-04-07T04:47:30.568Z,5.70
2023-04-07T04:49:33.349Z,7.00
2023-04-07T04:51:40.725Z,8.10
2023-04-07T04:54:23.889Z,5.60
2023-04-07T04:56:31.221Z,6.00
2023-04-07T04:58:38.297Z,6.10
2023-04-07T05:00:41.904Z,5.30
2023-04-07T05:02:46.914Z,5.10
2023-04-07T05:04:53.158Z,5.50
2023-04-07T05:07:14.659Z,5.40
2023-04-07T05:09:19.228Z,6.10
2023-04-07T05:11:24.824Z,5.70
2023-04-07T05:13:31.112Z,6.40
2023-04-07T05:15:35.789Z,5.30
2023-04-07T05:17:39.270Z,6.10
2023-04-07T05:19:46.343Z,7.90
2023-04-07T05:22:00.837Z,6.30
2023-04-07T05:24:05.948Z,4.80
2023-04-07T05:26:13.451Z,5.40
2023-04-07T05:28:39.743Z,5.70
2023-04-07T05:31:02.199Z,6.00
2023-04-07T05:33:10.011Z,6.20
2023-04-07T05:35:24.088Z,6.40
2023-04-07T05:37:32.682Z,6.30
2023-04-07T05:42:14.855Z,6.00
2023-04-07T05:44:28.952Z,5.90
2023-04-07T05:46:40.068Z,6.40
2023-04-07T05:48:43.225Z,5.80
2023-04-07T05:50:54.609Z,7.40
2023-04-07T05:53:01.095Z,6.40
2023-04-07T05:55:08.348Z,5.70
2023-04-07T05:57:11.666Z,4.50
2023-04-07T05:59:21.626Z,5.40
2023-04-07T06:03:41.534Z,6.20
2023-04-07T06:06:00.610Z,6.60
2023-04-07T06:08:10.834Z,5.60
2023-04-07T06:10:17.923Z,5.10
2023-04-07T06:12:22.180Z,5.90
2023-04-07T06:14:27.136Z,5.20
2023-04-07T06:16:35.103Z,5.90
2023-04-07T06:18:46.401Z,6.30
2023-04-07T06:20:55.132Z,7.00
2023-04-07T06:23:00.435Z,6.00
2023-04-07T06:25:05.203Z,7.20
2023-04-07T06:27:08.867Z,6.50
2023-04-07T06:29:11.665Z,6.70
2023-04-07T06:31:17.378Z,6.00
2023-04-07T06:33:37.498Z,6.00
2023-04-07T06:35:45.197Z,6.50
2023-04-07T06:37:50.855Z,8.30
2023-04-07T06:42:03.008Z,6.00
2023-04-07T06:44:13.984Z,5.00
2023-04-07T06:46:20.478Z,5.80
2023-04-07T06:48:39.102Z,5.70
2023-04-07T06:52:48.632Z,6.80
2023-04-07T06:54:56.753Z,7.00
2023-04-07T06:57:00.009Z,6.10
2023-04-07T06:59:04.646Z,6.60
2023-04-07T07:01:07.818Z,6.60
2023-04-07T07:03:32.420Z,6.60
2023-04-07T07:05:36.308Z,8.50
2023-04-07T07:07:40.711Z,7.80
2023-04-07T07:09:43.835Z,6.80
2023-04-07T07:11:46.652Z,7.60
2023-04-07T07:13:50.120Z,6.40
2023-04-07T07:15:56.277Z,7.20
2023-04-07T07:18:00.102Z,7.70
2023-04-07T07:20:03.391Z,7.60
2023-04-07T07:22:07.367Z,5.80
2023-04-07T07:24:10.642Z,6.50
2023-04-07T07:26:13.659Z,6.80
2023-04-07T07:28:16.761Z,6.30
2023-04-07T07:32:56.217Z,7.00
2023-04-07T07:34:59.172Z,6.40
2023-04-07T07:37:11.051Z,5.90
2023-04-07T07:39:14.607Z,7.20
2023-04-07T07:41:17.973Z,6.20
2023-04-07T07:43:31.500Z,6.20
2023-04-07T07:45:34.780Z,7.20
2023-04-07T07:47:43.108Z,6.20
2023-04-07T07:49:50.780Z,7.40
2023-04-07T07:51:58.562Z,7.00
2023-04-07T07:54:01.637Z,6.20
2023-04-07T07:56:06.035Z,6.40
2023-04-07T07:58:36.166Z,6.10
2023-04-07T08:00:41.863Z,6.40
2023-04-07T08:02:49.513Z,7.00
2023-04-07T08:04:54.788Z,6.40
2023-04-07T08:07:00.872Z,4.80
2023-04-07T08:09:04.984Z,7.20
2023-04-07T08:13:34.246Z,6.60
2023-04-07T08:15:39.051Z,5.60
2023-04-07T08:17:43.125Z,5.90
2023-04-07T08:19:46.831Z,7.20
2023-04-07T08:21:50.620Z,5.60
2023-04-07T08:23:57.128Z,5.50
2023-04-07T08:26:00.330Z,5.10
2023-04-07T08:28:04.755Z,5.20
2023-04-07T08:30:33.812Z,3.80
2023-04-07T08:32:59.246Z,5.20
2023-04-07T08:35:03.648Z,9.10
2023-04-07T08:37:12.166Z,7.50
2023-04-07T08:39:18.063Z,6.00
2023-04-07T08:41:32.574Z,6.50
2023-04-07T08:43:48.658Z,4.60
2023-04-07T08:45:59.344Z,6.00
2023-04-07T08:48:10.601Z,5.60
2023-04-07T08:50:19.882Z,6.70
2023-04-07T08:55:11.205Z,6.30
2023-04-07T08:57:14.814Z,5.10
2023-04-07T08:59:21.867Z,5.90
2023-04-07T09:01:28.146Z,5.40
2023-04-07T09:03:34.456Z,5.90
2023-04-07T09:05:39.422Z,4.80
2023-04-07T09:07:48.195Z,8.40
2023-04-07T09:09:52.505Z,6.00
2023-04-07T09:11:57.986Z,7.50
2023-04-07T09:14:01.778Z,4.20
2023-04-07T09:16:04.850Z,7.40
2023-04-07T09:18:07.745Z,6.30
2023-04-07T09:20:11.198Z,6.50
2023-04-07T09:22:16.704Z,5.50
2023-04-07T09:24:29.028Z,5.90
2023-04-07T09:26:31.786Z,5.00
2023-04-07T09:28:42.405Z,8.20
2023-04-07T09:30:54.655Z,7.30
2023-04-07T09:32:58.832Z,5.50
2023-04-07T09:35:06.261Z,6.30
2023-04-07T09:37:22.054Z,6.60
2023-04-07T09:39:26.418Z,7.80
2023-04-07T09:41:29.339Z,6.40
2023-04-07T09:43:32.254Z,6.40
2023-04-07T09:45:40.339Z,6.30
2023-04-07T09:47:47.221Z,7.30
2023-04-07T09:49:54.084Z,7.90
2023-04-07T09:52:07.684Z,9.00
2023-04-07T09:54:11.401Z,7.20
2023-04-07T09:56:22.811Z,7.70
2023-04-07T09:58:28.790Z,6.40
2023-04-07T10:00:33.750Z,6.10
2023-04-07T10:02:42.605Z,6.30
2023-04-07T10:04:45.937Z,5.70
2023-04-07T10:06:49.170Z,8.80
2023-04-07T10:08:52.447Z,8.70
2023-04-07T10:10:56.245Z,7.80
2023-04-07T10:12:59.393Z,7.50
2023-04-07T10:15:03.036Z,8.90
2023-04-07T10:17:08.470Z,7.70
2023-04-07T10:19:13.616Z,8.00
2023-04-07T10:21:18.510Z,5.60
2023-04-07T10:23:48.193Z,7.20
2023-04-07T10:25:54.755Z,8.20
2023-04-07T10:28:09.345Z,8.10
2023-04-07T10:30:16.277Z,7.50
2023-04-07T10:32:30.644Z,7.10
2023-04-07T10:34:54.644Z,9.40
2023-04-07T10:37:18.994Z,10.70
2023-04-07T10:39:22.064Z,7.40
2023-04-07T10:41:41.768Z,6.90
2023-04-07T10:43:45.153Z,9.50
2023-04-07T10:45:56.303Z,7.40
2023-04-07T10:48:03.635Z,7.90
2023-04-07T10:52:24.499Z,9.60
2023-04-07T10:54:32.571Z,8.30
2023-04-07T10:57:03.083Z,7.20
2023-04-07T10:59:17.276Z,5.60
2023-04-07T11:01:20.832Z,8.40
2023-04-07T11:03:26.700Z,9.20
2023-04-07T11:05:30.723Z,9.00
2023-04-07T11:07:46.769Z,8.50
2023-04-07T11:09:49.578Z,7.60
2023-04-07T11:11:53.607Z,6.40
2023-04-07T11:13:58.246Z,6.40
2023-04-07T11:16:01.079Z,9.90
2023-04-07T11:18:12.247Z,6.60
2023-04-07T11:20:14.876Z,8.20
2023-04-07T11:22:29.425Z,9.10
2023-04-07T11:24:34.058Z,7.00
2023-04-07T11:26:44.400Z,8.40
2023-04-07T11:28:54.644Z,6.20
2023-04-07T11:30:58.701Z,5.80
2023-04-07T11:33:02.864Z,6.80
2023-04-07T11:35:09.128Z,5.80
2023-04-07T11:37:29.144Z,6.80
2023-04-07T11:39:34.923Z,6.00
2023-04-07T11:41:48.711Z,8.20
2023-04-07T11:44:14.093Z,6.40
2023-04-07T11:46:20.359Z,5.50
2023-04-07T11:50:42.578Z,6.50
2023-04-07T11:52:47.923Z,6.90
2023-04-07T11:54:51.781Z,8.50
2023-04-07T11:56:56.663Z,7.90
2023-04-07T11:59:10.978Z,6.30
2023-04-07T12:01:14.181Z,9.20
2023-04-07T12:03:18.830Z,6.90
2023-04-07T12:05:22.022Z,6.40
2023-04-07T12:07:28.409Z,7.90
2023-04-07T12:09:38.741Z,7.10
2023-04-07T12:11:50.934Z,8.30
2023-04-07T12:13:54.431Z,6.90
2023-04-07T12:15:59.304Z,8.90
2023-04-07T12:18:03.548Z,7.60
2023-04-07T12:20:07.144Z,7.60
2023-04-07T12:22:10.419Z,7.10
2023-04-07T12:24:13.126Z,7.70
2023-04-07T12:26:16.577Z,6.90
2023-04-07T12:28:20.389Z,7.60
2023-04-07T12:30:22.954Z,7.80
2023-04-07T12:32:25.850Z,7.70
2023-04-07T12:34:29.177Z,5.90
2023-04-07T12:36:33.897Z,6.60
2023-04-07T12:38:37.279Z,5.80
2023-04-07T12:40:40.120Z,6.50
2023-04-07T12:42:43.345Z,6.40
2023-04-07T12:44:46.949Z,5.60
2023-04-07T12:46:55.533Z,6.10
2023-04-07T12:48:58.212Z,6.00
2023-04-07T12:51:03.659Z,7.10
2023-04-07T12:53:06.640Z,7.20
2023-04-07T12:55:09.828Z,6.50
2023-04-07T12:57:13.453Z,7.00
2023-04-07T12:59:16.908Z,7.20
2023-04-07T13:01:22.298Z,7.20
2023-04-07T13:03:25.108Z,6.80
2023-04-07T13:05:29.330Z,5.70
2023-04-07T13:07:32.602Z,7.80
2023-04-07T13:09:36.230Z,7.40
2023-04-07T13:11:39.093Z,6.50
2023-04-07T13:13:42.169Z,9.10
2023-04-07T13:15:44.964Z,8.80
2023-04-07T13:17:47.567Z,4.70
2023-04-07T13:19:51.941Z,6.80
2023-04-07T13:21:55.989Z,6.70
2023-04-07T13:23:59.463Z,8.70
2023-04-07T13:26:03.456Z,6.90
2023-04-07T13:28:07.102Z,7.50
2023-04-07T13:30:12.992Z,6.90
2023-04-07T13:32:17.533Z,5.90
2023-04-07T13:34:20.834Z,6.40
2023-04-07T13:36:26.268Z,7.70
2023-04-07T13:38:29.584Z,7.30
2023-04-07T13:40:32.231Z,10.00
2023-04-07T13:42:35.907Z,9.70
2023-04-07T13:44:39.621Z,7.30
2023-04-07T13:46:42.727Z,7.60
2023-04-07T13:48:47.249Z,10.60
2023-04-07T13:50:51.944Z,7.00
2023-04-07T13:52:54.848Z,7.30
2023-04-07T13:54:57.679Z,7.00
2023-04-07T13:57:02.471Z,6.60
2023-04-07T13:59:08.046Z,7.60
2023-04-07T14:01:11.315Z,7.30
2023-04-07T14:03:16.082Z,7.90
2023-04-07T14:05:21.693Z,11.00
2023-04-07T14:07:24.317Z,8.60
2023-04-07T14:09:26.973Z,6.60
2023-04-07T14:11:30.480Z,8.90
2023-04-07T14:13:33.073Z,5.90
2023-04-07T14:15:35.666Z,6.40
2023-04-07T14:17:38.457Z,5.90
2023-04-07T14:19:42.193Z,6.20
2023-04-07T14:21:44.983Z,6.10
2023-04-07T14:23:47.795Z,6.80
2023-04-07T14:25:50.904Z,6.40
2023-04-07T14:27:55.536Z,6.80
2023-04-07T14:29:59.889Z,6.70
2023-04-07T14:32:04.220Z,6.00
2023-04-07T14:34:09.747Z,7.40
2023-04-07T14:36:16.132Z,8.00
2023-04-07T14:38:19.183Z,8.70
2023-04-07T14:40:24.491Z,7.80
2023-04-07T14:42:27.882Z,8.10
2023-04-07T14:44:33.226Z,8.20
2023-04-07T14:46:36.328Z,7.00
2023-04-07T14:48:39.288Z,6.90
2023-04-07T14:50:42.294Z,6.90
2023-04-07T14:52:45.381Z,6.70
2023-04-07T14:54:50.289Z,6.90
2023-04-07T14:56:55.222Z,7.20
2023-04-07T14:58:59.437Z,6.30
2023-04-07T15:01:06.127Z,6.70
2023-04-07T15:03:10.030Z,7.20
2023-04-07T15:05:13.747Z,6.50
2023-04-07T15:07:16.617Z,6.80
2023-04-07T15:09:19.704Z,7.20
2023-04-07T15:11:27.495Z,6.50
2023-04-07T15:13:38.027Z,8.00
2023-04-07T15:15:42.832Z,6.50
2023-04-07T15:17:46.039Z,6.90
2023-04-07T15:19:48.809Z,6.10
2023-04-07T15:21:51.437Z,9.70
2023-04-07T15:23:54.717Z,7.30
2023-04-07T15:25:57.867Z,7.00
2023-04-07T15:28:00.787Z,7.00
2023-04-07T15:30:04.320Z,5.60
2023-04-07T15:32:07.308Z,6.30
2023-04-07T15:34:10.559Z,8.20
2023-04-07T15:36:17.051Z,9.10
2023-04-07T15:38:26.614Z,7.30
2023-04-07T15:40:29.655Z,8.30
2023-04-07T15:42:38.551Z,6.60
2023-04-07T15:44:43.416Z,7.50
2023-04-07T15:46:52.023Z,7.10
2023-04-07T15:48:55.980Z,7.30
2023-04-07T15:51:00.299Z,7.30
2023-04-07T15:53:05.026Z,6.60
2023-04-07T15:55:10.142Z,6.50
2023-04-07T15:57:13.218Z,8.50
2023-04-07T15:59:18.870Z,7.70
2023-04-07T16:01:24.296Z,8.30
2023-04-07T16:03:31.794Z,8.80
2023-04-07T16:05:34.587Z,7.60
2023-04-07T16:07:37.225Z,6.60
2023-04-07T16:09:39.744Z,6.60
2023-04-07T16:11:42.497Z,5.90
2023-04-07T16:13:46.829Z,7.00
2023-04-07T16:15:49.521Z,6.70
2023-04-07T16:17:52.379Z,6.70
2023-04-07T16:20:00.429Z,7.10
2023-04-07T16:22:04.614Z,8.70
2023-04-07T16:24:10.344Z,7.40
2023-04-07T16:26:14.933Z,7.00
2023-04-07T16:28:17.431Z,10.20
2023-04-07T16:30:21.757Z,8.80
2023-04-07T16:32:27.594Z,7.80
2023-04-07T16:34:32.706Z,7.90
2023-04-07T16:36:35.690Z,8.00
2023-04-07T16:38:38.907Z,7.50
2023-04-07T16:41:02.728Z,7.70
2023-04-07T16:43:06.777Z,7.30
2023-04-07T16:45:14.080Z,7.30
2023-04-07T16:47:16.860Z,7.90
2023-04-07T16:49:20.946Z,6.60
2023-04-07T16:51:28.548Z,11.50
2023-04-07T16:53:31.299Z,8.10
2023-04-07T16:55:39.444Z,8.70
2023-04-07T16:57:42.003Z,7.20
2023-04-07T16:59:44.918Z,7.70
2023-04-07T17:01:48.309Z,6.90
2023-04-07T17:03:53.288Z,7.60
2023-04-07T17:05:56.164Z,7.30
2023-04-07T17:07:58.721Z,8.20
2023-04-07T17:10:03.272Z,8.40
2023-04-07T17:12:07.498Z,7.80
2023-04-07T17:14:10.466Z,6.20
2023-04-07T17:16:14.928Z,9.20
2023-04-07T17:18:17.969Z,9.30
2023-04-07T17:20:22.758Z,9.70
2023-04-07T17:22:26.244Z,10.50
2023-04-07T17:24:28.741Z,8.20
2023-04-07T17:26:31.423Z,9.30
2023-04-07T17:28:34.037Z,9.70
2023-04-07T17:30:40.248Z,9.40
2023-04-07T17:32:43.813Z,8.00
2023-04-07T17:34:48.033Z,7.10
2023-04-07T17:36:51.453Z,7.00
2023-04-07T17:38:59.713Z,7.90
2023-04-07T17:41:02.857Z,7.50
2023-04-07T17:43:06.074Z,7.10
2023-04-07T17:45:09.580Z,6.60
2023-04-07T17:47:14.184Z,7.00
2023-04-07T17:49:17.573Z,7.50
2023-04-07T17:51:20.949Z,7.50
2023-04-07T17:53:31.230Z,8.00
2023-04-07T17:55:38.603Z,7.70
2023-04-07T17:57:43.795Z,8.10
2023-04-07T17:59:56.633Z,7.40
2023-04-07T18:02:08.778Z,10.90
2023-04-07T18:04:11.914Z,9.00
2023-04-07T18:06:18.187Z,10.20
2023-04-07T18:08:21.041Z,10.70
2023-04-07T18:10:24.764Z,11.30
2023-04-07T18:12:27.780Z,9.00
2023-04-07T18:14:32.668Z,9.90
2023-04-07T18:16:36.593Z,8.20
2023-04-07T18:18:39.295Z,8.20
2023-04-07T18:20:42.225Z,8.00
2023-04-07T18:22:46.356Z,7.80
2023-04-07T18:24:51.654Z,7.20
2023-04-07T18:26:54.906Z,7.80
2023-04-07T18:28:57.592Z,7.60
2023-04-07T18:31:07.816Z,7.50
2023-04-07T18:33:13.223Z,7.90
2023-04-07T18:35:18.451Z,8.20
2023-04-07T18:37:22.146Z,6.70
2023-04-07T18:39:28.131Z,11.00
2023-04-07T18:41:31.545Z,8.90
2023-04-07T18:43:34.405Z,8.30
2023-04-07T18:45:37.291Z,6.90
2023-04-07T18:47:47.761Z,7.20
2023-04-07T18:49:53.674Z,7.30
2023-04-07T18:51:56.463Z,6.50
2023-04-07T18:53:59.143Z,6.80
2023-04-07T18:56:02.615Z,6.70
2023-04-07T18:58:23.224Z,6.80
2023-04-07T19:00:25.905Z,8.60
2023-04-07T19:02:28.872Z,9.80
2023-04-07T19:04:32.045Z,7.70
2023-04-07T19:06:37.225Z,7.90
2023-04-07T19:08:42.617Z,7.80
2023-04-07T19:10:54.368Z,7.10
2023-04-07T19:12:57.283Z,6.60
2023-04-07T19:15:01.844Z,6.50
2023-04-07T19:17:07.153Z,7.10
2023-04-07T19:19:15.044Z,7.50
2023-04-07T19:21:28.080Z,7.30
2023-04-07T19:23:32.509Z,7.20
2023-04-07T19:25:35.677Z,9.10
2023-04-07T19:27:39.551Z,7.60
2023-04-07T19:29:42.642Z,7.10
2023-04-07T19:31:45.363Z,6.50
2023-04-07T19:33:48.962Z,7.00
2023-04-07T19:35:51.748Z,5.80
2023-04-07T19:37:58.455Z,6.30
2023-04-07T19:40:08.963Z,6.80
2023-04-07T19:42:11.878Z,8.60
2023-04-07T19:44:19.002Z,7.40
2023-04-07T19:46:22.151Z,7.40
2023-04-07T19:48:25.386Z,7.30
2023-04-07T19:50:32.262Z,7.80
2023-04-07T19:54:48.251Z,7.20
2023-04-07T19:56:53.056Z,11.40
2023-04-07T19:59:05.702Z,9.00
2023-04-07T20:01:16.947Z,7.20
2023-04-07T20:03:22.808Z,8.00
2023-04-07T20:05:25.592Z,7.90
2023-04-07T20:07:35.609Z,8.00
2023-04-07T20:09:42.282Z,7.30
2023-04-07T20:11:48.166Z,8.40
2023-04-07T20:13:50.857Z,8.60
2023-04-07T20:15:55.066Z,7.30
2023-04-07T20:17:58.081Z,7.80
2023-04-07T20:20:06.175Z,8.40
2023-04-07T20:22:11.306Z,7.80
2023-04-07T20:24:14.368Z,7.60
2023-04-07T20:26:22.100Z,8.40
2023-04-07T20:28:29.037Z,11.90
2023-04-07T20:30:35.192Z,10.30
2023-04-07T20:32:43.696Z,8.90
2023-04-07T20:34:48.334Z,8.10
2023-04-07T20:36:54.962Z,7.50
2023-04-07T20:39:02.281Z,7.70
2023-04-07T20:41:12.506Z,10.70
2023-04-07T20:43:18.418Z,7.40
2023-04-07T20:45:23.026Z,8.70
2023-04-07T20:47:28.421Z,9.00
2023-04-07T20:49:35.107Z,8.80
2023-04-07T20:51:40.069Z,8.70
2023-04-07T20:53:47.034Z,7.70
2023-04-07T20:55:53.079Z,8.20
2023-04-07T20:58:03.018Z,7.90
2023-04-07T21:00:09.460Z,8.50
2023-04-07T21:02:12.584Z,7.30
2023-04-07T21:04:16.285Z,8.50
2023-04-07T21:08:27.356Z,7.80
2023-04-07T21:10:31.955Z,7.60
2023-04-07T21:12:36.888Z,7.70
2023-04-07T21:14:45.961Z,8.40
2023-04-07T21:16:50.492Z,8.50
2023-04-07T21:18:54.133Z,7.70
2023-04-07T21:21:02.305Z,8.30
2023-04-07T21:23:12.204Z,8.00
2023-04-07T21:25:16.512Z,8.40
2023-04-07T21:27:22.025Z,8.60
2023-04-07T21:29:24.614Z,9.60
2023-04-07T21:31:29.036Z,9.20
2023-04-07T21:33:36.389Z,11.10
2023-04-07T21:35:39.520Z,9.70
2023-04-07T21:37:42.084Z,8.60
2023-04-07T21:39:58.705Z,8.00
2023-04-07T21:42:02.548Z,7.80
2023-04-07T21:44:10.479Z,7.30
2023-04-07T21:46:14.851Z,9.20
2023-04-07T21:48:23.925Z,8.00
2023-04-07T21:50:28.234Z,9.10
2023-04-07T21:52:31.764Z,8.50
2023-04-07T21:54:36.735Z,10.50
2023-04-07T21:56:41.618Z,9.30
2023-04-07T21:58:47.098Z,9.00
2023-04-07T22:02:57.301Z,7.80
2023-04-07T22:05:04.056Z,8.40
2023-04-07T22:07:06.628Z,9.10
2023-04-07T22:09:11.190Z,8.90
2023-04-07T22:11:19.312Z,9.60
2023-04-07T22:13:24.580Z,9.80
2023-04-07T22:15:32.603Z,8.80
2023-04-07T22:17:37.078Z,9.60
2023-04-07T22:19:45.114Z,9.10
2023-04-07T22:21:51.562Z,9.10
2023-04-07T22:24:04.686Z,8.60
2023-04-07T22:26:11.303Z,10.80
2023-04-07T22:28:22.973Z,11.70
2023-04-07T22:30:28.824Z,8.80
2023-04-07T22:32:33.521Z,10.60
2023-04-07T22:34:38.674Z,9.80
2023-04-07T22:36:46.063Z,9.40
2023-04-07T22:38:49.792Z,10.40
2023-04-07T22:40:56.640Z,10.10
2023-04-07T22:43:00.444Z,10.40
2023-04-07T22:45:05.272Z,9.40
2023-04-07T22:47:12.243Z,9.40
2023-04-07T22:49:25.921Z,9.50
2023-04-07T22:51:35.382Z,9.40
2023-04-07T22:53:41.948Z,9.30
2023-04-07T22:55:46.823Z,9.30
2023-04-07T22:57:51.768Z,8.10
2023-04-07T22:59:58.850Z,8.30
2023-04-07T23:02:02.025Z,8.00
2023-04-07T23:04:08.576Z,8.60
2023-04-07T23:06:15.589Z,8.40
2023-04-07T23:08:18.415Z,8.50
2023-04-07T23:10:21.231Z,8.90
2023-04-07T23:12:26.529Z,8.70
2023-04-07T23:14:29.432Z,8.40
2023-04-07T23:16:38.784Z,9.30
2023-04-07T23:18:49.438Z,9.80
2023-04-07T23:21:10.335Z,10.40
2023-04-07T23:23:13.432Z,8.10
2023-04-07T23:25:17.238Z,7.00
2023-04-07T23:27:19.852Z,7.70
2023-04-07T23:29:24.365Z,8.20
2023-04-07T23:31:29.229Z,9.10
2023-04-07T23:33:33.870Z,8.40
2023-04-07T23:37:46.233Z,7.90
2023-04-07T23:39:53.068Z,9.40
2023-04-07T23:41:58.586Z,8.10
2023-04-07T23:44:04.777Z,8.80
2023-04-07T23:46:08.533Z,7.40
2023-04-07T23:48:21.677Z,7.80
2023-04-07T23:50:27.920Z,8.10
2023-04-07T23:52:31.605Z,7.20
2023-04-07T23:54:36.398Z,7.50
2023-04-07T23:56:40.983Z,7.90
2023-04-07T23:58:43.685Z,7.00
